sensor_id;sensor_type;location;lat;lon;timestamp;temperature;humidity
40996;DHT22;26723;57.478;12.066;2022-12-18T00:00:15;2.30;99.90
40996;DHT22;26723;57.478;12.066;2022-12-18T00:03:25;2.30;99.90
40996;DHT22;26723;57.478;12.066;2022-12-18T00:06:35;2.20;99.90
40996;DHT22;26723;57.478;12.066;2022-12-18T00:09:43;2.30;99.90
40996;DHT22;26723;57.478;12.066;2022-12-18T00:12:52;2.30;99.90
40996;DHT22;26723;57.478;12.066;2022-12-18T00:16:02;2.30;99.90
40996;DHT22;26723;57.478;12.066;2022-12-18T00:19:11;2.30;99.90
40996;DHT22;26723;57.478;12.066;2022-12-18T00:22:21;2.30;99.90
40996;DHT22;26723;57.478;12.066;2022-12-18T00:25:29;2.30;99.90
40996;DHT22;26723;57.478;12.066;2022-12-18T00:28:40;2.30;99.90
40996;DHT22;26723;57.478;12.066;2022-12-18T00:31:49;2.30;99.90
40996;DHT22;26723;57.478;12.066;2022-12-18T00:34:57;2.20;99.90
40996;DHT22;26723;57.478;12.066;2022-12-18T00:38:07;2.20;99.90
40996;DHT22;26723;57.478;12.066;2022-12-18T00:41:16;2.20;99.90
40996;DHT22;26723;57.478;12.066;2022-12-18T00:44:45;2.20;99.90
40996;DHT22;26723;57.478;12.066;2022-12-18T00:47:54;2.20;99.90
40996;DHT22;26723;57.478;12.066;2022-12-18T00:51:02;2.10;99.90
40996;DHT22;26723;57.478;12.066;2022-12-18T00:54:12;2.10;99.90
40996;DHT22;26723;57.478;12.066;2022-12-18T00:57:20;2.10;99.90
40996;DHT22;26723;57.478;12.066;2022-12-18T01:00:29;2.00;99.90
40996;DHT22;26723;57.478;12.066;2022-12-18T01:03:37;2.00;99.90
40996;DHT22;26723;57.478;12.066;2022-12-18T01:06:47;1.90;99.90
40996;DHT22;26723;57.478;12.066;2022-12-18T01:09:57;2.00;99.90
40996;DHT22;26723;57.478;12.066;2022-12-18T01:13:05;2.00;99.90
40996;DHT22;26723;57.478;12.066;2022-12-18T01:16:15;2.00;99.90
40996;DHT22;26723;57.478;12.066;2022-12-18T01:19:24;2.00;99.90
40996;DHT22;26723;57.478;12.066;2022-12-18T01:22:34;1.90;99.90
40996;DHT22;26723;57.478;12.066;2022-12-18T01:25:43;1.90;99.90
40996;DHT22;26723;57.478;12.066;2022-12-18T01:28:54;1.90;99.90
40996;DHT22;26723;57.478;12.066;2022-12-18T01:32:03;1.90;99.90
40996;DHT22;26723;57.478;12.066;2022-12-18T01:35:12;2.00;99.90
40996;DHT22;26723;57.478;12.066;2022-12-18T01:38:20;2.00;99.90
40996;DHT22;26723;57.478;12.066;2022-12-18T01:41:31;2.00;99.90
40996;DHT22;26723;57.478;12.066;2022-12-18T01:45:03;2.00;99.90
40996;DHT22;26723;57.478;12.066;2022-12-18T01:48:12;1.90;99.90
40996;DHT22;26723;57.478;12.066;2022-12-18T01:51:22;1.80;99.90
40996;DHT22;26723;57.478;12.066;2022-12-18T01:54:30;1.80;99.90
40996;DHT22;26723;57.478;12.066;2022-12-18T01:57:41;1.80;99.90
40996;DHT22;26723;57.478;12.066;2022-12-18T02:00:50;1.80;99.90
40996;DHT22;26723;57.478;12.066;2022-12-18T02:04:19;1.90;99.90
40996;DHT22;26723;57.478;12.066;2022-12-18T02:07:36;1.90;99.90
40996;DHT22;26723;57.478;12.066;2022-12-18T02:10:50;1.90;99.90
40996;DHT22;26723;57.478;12.066;2022-12-18T02:14:11;2.00;99.90
40996;DHT22;26723;57.478;12.066;2022-12-18T02:17:25;2.00;99.90
40996;DHT22;26723;57.478;12.066;2022-12-18T02:20:40;2.10;99.90
40996;DHT22;26723;57.478;12.066;2022-12-18T02:23:57;2.10;99.90
40996;DHT22;26723;57.478;12.066;2022-12-18T02:27:11;2.10;99.90
40996;DHT22;26723;57.478;12.066;2022-12-18T02:30:20;2.10;99.90
40996;DHT22;26723;57.478;12.066;2022-12-18T02:33:30;2.10;99.90
40996;DHT22;26723;57.478;12.066;2022-12-18T02:36:42;2.10;99.90
40996;DHT22;26723;57.478;12.066;2022-12-18T02:39:54;2.20;99.90
40996;DHT22;26723;57.478;12.066;2022-12-18T02:43:10;2.20;99.90
40996;DHT22;26723;57.478;12.066;2022-12-18T02:46:29;2.20;99.90
40996;DHT22;26723;57.478;12.066;2022-12-18T02:49:52;2.20;99.90
40996;DHT22;26723;57.478;12.066;2022-12-18T02:53:10;2.30;99.90
40996;DHT22;26723;57.478;12.066;2022-12-18T02:56:26;2.30;99.90
40996;DHT22;26723;57.478;12.066;2022-12-18T02:59:44;2.30;99.90
40996;DHT22;26723;57.478;12.066;2022-12-18T03:02:57;2.40;99.90
40996;DHT22;26723;57.478;12.066;2022-12-18T03:06:12;2.40;99.90
40996;DHT22;26723;57.478;12.066;2022-12-18T03:09:26;2.40;99.90
40996;DHT22;26723;57.478;12.066;2022-12-18T03:12:38;2.40;99.90
40996;DHT22;26723;57.478;12.066;2022-12-18T03:15:53;2.40;99.90
40996;DHT22;26723;57.478;12.066;2022-12-18T03:19:06;2.50;99.90
40996;DHT22;26723;57.478;12.066;2022-12-18T03:22:15;2.50;99.90
40996;DHT22;26723;57.478;12.066;2022-12-18T03:25:31;2.50;99.90
40996;DHT22;26723;57.478;12.066;2022-12-18T03:28:44;2.50;99.90
40996;DHT22;26723;57.478;12.066;2022-12-18T03:32:00;2.60;99.90
40996;DHT22;26723;57.478;12.066;2022-12-18T03:35:14;2.60;99.90
40996;DHT22;26723;57.478;12.066;2022-12-18T03:38:24;2.60;99.90
40996;DHT22;26723;57.478;12.066;2022-12-18T03:41:37;2.70;99.90
40996;DHT22;26723;57.478;12.066;2022-12-18T03:45:05;2.80;99.90
40996;DHT22;26723;57.478;12.066;2022-12-18T03:48:23;2.80;99.90
40996;DHT22;26723;57.478;12.066;2022-12-18T03:51:42;2.80;99.90
40996;DHT22;26723;57.478;12.066;2022-12-18T03:54:54;2.90;99.90
40996;DHT22;26723;57.478;12.066;2022-12-18T03:58:05;3.00;99.90
40996;DHT22;26723;57.478;12.066;2022-12-18T04:01:36;3.00;99.90
40996;DHT22;26723;57.478;12.066;2022-12-18T04:04:48;3.10;99.90
40996;DHT22;26723;57.478;12.066;2022-12-18T04:07:59;3.10;99.90
40996;DHT22;26723;57.478;12.066;2022-12-18T04:11:08;3.10;99.90
40996;DHT22;26723;57.478;12.066;2022-12-18T04:14:17;3.10;99.90
40996;DHT22;26723;57.478;12.066;2022-12-18T04:17:30;3.10;99.90
40996;DHT22;26723;57.478;12.066;2022-12-18T04:20:40;3.10;99.90
40996;DHT22;26723;57.478;12.066;2022-12-18T04:23:48;3.10;99.90
40996;DHT22;26723;57.478;12.066;2022-12-18T04:26:59;3.10;99.90
40996;DHT22;26723;57.478;12.066;2022-12-18T04:30:12;3.10;99.90
40996;DHT22;26723;57.478;12.066;2022-12-18T04:33:21;3.10;99.90
40996;DHT22;26723;57.478;12.066;2022-12-18T04:36:31;3.10;99.90
40996;DHT22;26723;57.478;12.066;2022-12-18T04:39:39;3.10;99.90
40996;DHT22;26723;57.478;12.066;2022-12-18T04:42:55;3.10;99.90
40996;DHT22;26723;57.478;12.066;2022-12-18T04:46:04;3.20;99.90
40996;DHT22;26723;57.478;12.066;2022-12-18T04:49:12;3.20;99.90
40996;DHT22;26723;57.478;12.066;2022-12-18T04:52:22;3.20;99.90
40996;DHT22;26723;57.478;12.066;2022-12-18T04:55:31;3.20;99.90
40996;DHT22;26723;57.478;12.066;2022-12-18T04:58:41;3.20;99.90
40996;DHT22;26723;57.478;12.066;2022-12-18T05:01:50;3.20;99.90
40996;DHT22;26723;57.478;12.066;2022-12-18T05:04:59;3.20;99.90
40996;DHT22;26723;57.478;12.066;2022-12-18T05:08:09;3.30;99.90
40996;DHT22;26723;57.478;12.066;2022-12-18T05:11:17;3.30;99.90
40996;DHT22;26723;57.478;12.066;2022-12-18T05:14:26;3.30;99.90
40996;DHT22;26723;57.478;12.066;2022-12-18T05:17:36;3.30;99.90
40996;DHT22;26723;57.478;12.066;2022-12-18T05:20:44;3.30;99.90
40996;DHT22;26723;57.478;12.066;2022-12-18T05:23:54;3.40;99.90
40996;DHT22;26723;57.478;12.066;2022-12-18T05:27:02;3.40;99.90
40996;DHT22;26723;57.478;12.066;2022-12-18T05:30:11;3.40;99.90
40996;DHT22;26723;57.478;12.066;2022-12-18T05:33:21;3.40;99.90
40996;DHT22;26723;57.478;12.066;2022-12-18T05:36:30;3.40;99.90
40996;DHT22;26723;57.478;12.066;2022-12-18T05:39:39;3.50;99.90
40996;DHT22;26723;57.478;12.066;2022-12-18T05:42:47;3.50;99.90
40996;DHT22;26723;57.478;12.066;2022-12-18T05:45:56;3.50;99.90
40996;DHT22;26723;57.478;12.066;2022-12-18T05:49:04;3.50;99.90
40996;DHT22;26723;57.478;12.066;2022-12-18T05:52:13;3.50;99.90
40996;DHT22;26723;57.478;12.066;2022-12-18T05:55:22;3.50;99.90
40996;DHT22;26723;57.478;12.066;2022-12-18T05:58:31;3.50;99.90
40996;DHT22;26723;57.478;12.066;2022-12-18T06:01:39;3.50;99.90
40996;DHT22;26723;57.478;12.066;2022-12-18T06:04:48;3.50;99.90
40996;DHT22;26723;57.478;12.066;2022-12-18T06:07:56;3.50;99.90
40996;DHT22;26723;57.478;12.066;2022-12-18T06:11:06;3.50;99.90
40996;DHT22;26723;57.478;12.066;2022-12-18T06:14:14;3.50;99.90
40996;DHT22;26723;57.478;12.066;2022-12-18T06:17:27;3.50;99.90
40996;DHT22;26723;57.478;12.066;2022-12-18T06:20:36;3.50;99.90
40996;DHT22;26723;57.478;12.066;2022-12-18T06:23:46;3.50;99.90
40996;DHT22;26723;57.478;12.066;2022-12-18T06:26:56;3.50;99.90
40996;DHT22;26723;57.478;12.066;2022-12-18T06:30:05;3.50;99.90
40996;DHT22;26723;57.478;12.066;2022-12-18T06:33:14;3.50;99.90
40996;DHT22;26723;57.478;12.066;2022-12-18T06:36:23;3.50;99.90
40996;DHT22;26723;57.478;12.066;2022-12-18T06:39:31;3.50;99.90
40996;DHT22;26723;57.478;12.066;2022-12-18T06:42:41;3.50;99.90
40996;DHT22;26723;57.478;12.066;2022-12-18T06:45:49;3.60;99.90
40996;DHT22;26723;57.478;12.066;2022-12-18T06:48:59;3.60;99.90
40996;DHT22;26723;57.478;12.066;2022-12-18T06:52:08;3.60;99.90
40996;DHT22;26723;57.478;12.066;2022-12-18T06:55:16;3.60;99.90
40996;DHT22;26723;57.478;12.066;2022-12-18T06:58:26;3.60;99.90
40996;DHT22;26723;57.478;12.066;2022-12-18T07:01:34;3.60;99.90
40996;DHT22;26723;57.478;12.066;2022-12-18T07:04:43;3.60;99.90
40996;DHT22;26723;57.478;12.066;2022-12-18T07:07:51;3.60;99.90
40996;DHT22;26723;57.478;12.066;2022-12-18T07:11:03;3.50;99.90
40996;DHT22;26723;57.478;12.066;2022-12-18T07:14:13;3.60;99.90
40996;DHT22;26723;57.478;12.066;2022-12-18T07:17:22;3.60;99.90
40996;DHT22;26723;57.478;12.066;2022-12-18T07:20:30;3.50;99.90
40996;DHT22;26723;57.478;12.066;2022-12-18T07:23:38;3.60;99.90
40996;DHT22;26723;57.478;12.066;2022-12-18T07:26:48;3.60;99.90
40996;DHT22;26723;57.478;12.066;2022-12-18T07:29:57;3.60;99.90
40996;DHT22;26723;57.478;12.066;2022-12-18T07:33:06;3.60;99.90
40996;DHT22;26723;57.478;12.066;2022-12-18T07:36:14;3.60;99.90
40996;DHT22;26723;57.478;12.066;2022-12-18T07:39:23;3.70;99.90
40996;DHT22;26723;57.478;12.066;2022-12-18T07:42:31;3.60;99.90
40996;DHT22;26723;57.478;12.066;2022-12-18T07:45:42;3.70;99.90
40996;DHT22;26723;57.478;12.066;2022-12-18T07:48:50;3.70;99.90
40996;DHT22;26723;57.478;12.066;2022-12-18T07:51:58;3.70;99.90
40996;DHT22;26723;57.478;12.066;2022-12-18T07:55:07;3.60;99.90
40996;DHT22;26723;57.478;12.066;2022-12-18T07:58:16;3.60;99.90
40996;DHT22;26723;57.478;12.066;2022-12-18T08:01:26;3.60;99.90
40996;DHT22;26723;57.478;12.066;2022-12-18T08:04:35;3.60;99.90
40996;DHT22;26723;57.478;12.066;2022-12-18T08:07:43;3.60;99.90
40996;DHT22;26723;57.478;12.066;2022-12-18T08:10:51;3.60;99.90
40996;DHT22;26723;57.478;12.066;2022-12-18T08:14:00;3.60;99.90
40996;DHT22;26723;57.478;12.066;2022-12-18T08:17:09;3.60;99.90
40996;DHT22;26723;57.478;12.066;2022-12-18T08:20:18;3.60;99.90
40996;DHT22;26723;57.478;12.066;2022-12-18T08:23:26;3.60;99.90
40996;DHT22;26723;57.478;12.066;2022-12-18T08:26:34;3.60;99.90
40996;DHT22;26723;57.478;12.066;2022-12-18T08:29:43;3.70;99.90
40996;DHT22;26723;57.478;12.066;2022-12-18T08:32:52;3.70;99.90
40996;DHT22;26723;57.478;12.066;2022-12-18T08:36:02;3.70;99.90
40996;DHT22;26723;57.478;12.066;2022-12-18T08:39:11;3.70;99.90
40996;DHT22;26723;57.478;12.066;2022-12-18T08:42:19;3.70;99.90
40996;DHT22;26723;57.478;12.066;2022-12-18T08:45:45;3.80;99.90
40996;DHT22;26723;57.478;12.066;2022-12-18T08:48:55;3.80;99.90
40996;DHT22;26723;57.478;12.066;2022-12-18T08:52:04;3.80;99.90
40996;DHT22;26723;57.478;12.066;2022-12-18T08:55:12;3.80;99.90
40996;DHT22;26723;57.478;12.066;2022-12-18T08:58:20;3.80;99.90
40996;DHT22;26723;57.478;12.066;2022-12-18T09:01:29;3.90;99.90
40996;DHT22;26723;57.478;12.066;2022-12-18T09:04:39;3.90;99.90
40996;DHT22;26723;57.478;12.066;2022-12-18T09:07:48;3.90;99.90
40996;DHT22;26723;57.478;12.066;2022-12-18T09:10:56;4.00;99.90
40996;DHT22;26723;57.478;12.066;2022-12-18T09:14:04;4.10;99.90
40996;DHT22;26723;57.478;12.066;2022-12-18T09:17:13;4.20;99.90
40996;DHT22;26723;57.478;12.066;2022-12-18T09:20:23;4.20;99.90
40996;DHT22;26723;57.478;12.066;2022-12-18T09:23:31;4.20;99.90
40996;DHT22;26723;57.478;12.066;2022-12-18T09:26:39;4.20;99.90
40996;DHT22;26723;57.478;12.066;2022-12-18T09:29:51;4.10;99.90
40996;DHT22;26723;57.478;12.066;2022-12-18T09:32:59;4.10;99.90
40996;DHT22;26723;57.478;12.066;2022-12-18T09:36:11;4.10;99.90
40996;DHT22;26723;57.478;12.066;2022-12-18T09:39:20;4.10;99.90
40996;DHT22;26723;57.478;12.066;2022-12-18T09:42:30;4.20;99.90
40996;DHT22;26723;57.478;12.066;2022-12-18T09:45:46;4.10;99.90
40996;DHT22;26723;57.478;12.066;2022-12-18T09:48:59;4.10;99.90
40996;DHT22;26723;57.478;12.066;2022-12-18T09:52:15;4.20;99.90
40996;DHT22;26723;57.478;12.066;2022-12-18T09:55:27;4.20;99.90
40996;DHT22;26723;57.478;12.066;2022-12-18T09:58:49;4.20;99.90
40996;DHT22;26723;57.478;12.066;2022-12-18T10:02:12;4.20;99.90
40996;DHT22;26723;57.478;12.066;2022-12-18T10:05:31;4.20;99.90
40996;DHT22;26723;57.478;12.066;2022-12-18T10:08:48;4.20;99.90
40996;DHT22;26723;57.478;12.066;2022-12-18T10:12:04;4.20;99.90
40996;DHT22;26723;57.478;12.066;2022-12-18T10:15:19;4.20;99.90
40996;DHT22;26723;57.478;12.066;2022-12-18T10:18:44;4.30;99.90
40996;DHT22;26723;57.478;12.066;2022-12-18T10:22:00;4.30;99.90
40996;DHT22;26723;57.478;12.066;2022-12-18T10:25:21;4.30;99.90
40996;DHT22;26723;57.478;12.066;2022-12-18T10:28:32;4.30;99.90
40996;DHT22;26723;57.478;12.066;2022-12-18T10:31:44;4.30;99.90
40996;DHT22;26723;57.478;12.066;2022-12-18T10:34:53;4.30;99.90
40996;DHT22;26723;57.478;12.066;2022-12-18T10:38:19;4.40;99.90
40996;DHT22;26723;57.478;12.066;2022-12-18T10:41:30;4.40;99.90
40996;DHT22;26723;57.478;12.066;2022-12-18T10:44:39;4.40;99.90
40996;DHT22;26723;57.478;12.066;2022-12-18T10:47:48;4.40;99.90
40996;DHT22;26723;57.478;12.066;2022-12-18T10:50:57;4.40;99.90
40996;DHT22;26723;57.478;12.066;2022-12-18T10:54:22;4.50;99.90
40996;DHT22;26723;57.478;12.066;2022-12-18T10:57:34;4.50;99.90
40996;DHT22;26723;57.478;12.066;2022-12-18T11:00:43;4.50;99.90
40996;DHT22;26723;57.478;12.066;2022-12-18T11:04:00;4.50;99.90
40996;DHT22;26723;57.478;12.066;2022-12-18T11:07:09;4.50;99.90
40996;DHT22;26723;57.478;12.066;2022-12-18T11:10:19;4.60;99.90
40996;DHT22;26723;57.478;12.066;2022-12-18T11:13:30;4.60;99.90
40996;DHT22;26723;57.478;12.066;2022-12-18T11:16:44;4.60;99.90
40996;DHT22;26723;57.478;12.066;2022-12-18T11:20:21;4.60;99.90
40996;DHT22;26723;57.478;12.066;2022-12-18T11:23:30;4.60;99.90
40996;DHT22;26723;57.478;12.066;2022-12-18T11:26:38;4.60;99.90
40996;DHT22;26723;57.478;12.066;2022-12-18T11:29:51;4.60;99.90
40996;DHT22;26723;57.478;12.066;2022-12-18T11:33:03;4.60;99.90
40996;DHT22;26723;57.478;12.066;2022-12-18T11:36:14;4.60;99.90
40996;DHT22;26723;57.478;12.066;2022-12-18T11:39:30;4.60;99.90
40996;DHT22;26723;57.478;12.066;2022-12-18T11:42:46;4.60;99.90
40996;DHT22;26723;57.478;12.066;2022-12-18T11:46:01;4.70;99.90
40996;DHT22;26723;57.478;12.066;2022-12-18T11:49:13;4.70;99.90
40996;DHT22;26723;57.478;12.066;2022-12-18T11:52:24;4.80;99.90
40996;DHT22;26723;57.478;12.066;2022-12-18T11:55:39;4.80;99.90
40996;DHT22;26723;57.478;12.066;2022-12-18T11:58:55;4.80;99.90
40996;DHT22;26723;57.478;12.066;2022-12-18T12:02:24;4.70;99.90
40996;DHT22;26723;57.478;12.066;2022-12-18T12:05:45;4.70;99.90
40996;DHT22;26723;57.478;12.066;2022-12-18T12:09:04;4.60;99.90
40996;DHT22;26723;57.478;12.066;2022-12-18T12:12:25;4.60;99.90
40996;DHT22;26723;57.478;12.066;2022-12-18T12:15:43;4.60;99.90
40996;DHT22;26723;57.478;12.066;2022-12-18T12:19:05;4.60;99.90
40996;DHT22;26723;57.478;12.066;2022-12-18T12:22:23;4.60;99.90
40996;DHT22;26723;57.478;12.066;2022-12-18T12:25:37;4.60;99.90
40996;DHT22;26723;57.478;12.066;2022-12-18T12:28:57;4.60;99.90
40996;DHT22;26723;57.478;12.066;2022-12-18T12:32:21;4.60;99.90
40996;DHT22;26723;57.478;12.066;2022-12-18T12:35:42;4.60;99.90
40996;DHT22;26723;57.478;12.066;2022-12-18T12:38:55;4.60;99.90
40996;DHT22;26723;57.478;12.066;2022-12-18T12:42:08;4.60;99.90
40996;DHT22;26723;57.478;12.066;2022-12-18T12:45:41;4.60;99.90
40996;DHT22;26723;57.478;12.066;2022-12-18T12:48:53;4.60;99.90
40996;DHT22;26723;57.478;12.066;2022-12-18T12:52:07;4.60;99.90
40996;DHT22;26723;57.478;12.066;2022-12-18T12:55:21;4.60;99.90
40996;DHT22;26723;57.478;12.066;2022-12-18T12:58:36;4.70;99.90
40996;DHT22;26723;57.478;12.066;2022-12-18T13:01:53;4.70;99.90
40996;DHT22;26723;57.478;12.066;2022-12-18T13:05:16;4.70;99.90
40996;DHT22;26723;57.478;12.066;2022-12-18T13:08:30;4.70;99.90
40996;DHT22;26723;57.478;12.066;2022-12-18T13:11:43;4.70;99.90
40996;DHT22;26723;57.478;12.066;2022-12-18T13:15:20;4.70;99.90
40996;DHT22;26723;57.478;12.066;2022-12-18T13:18:29;4.70;99.90
40996;DHT22;26723;57.478;12.066;2022-12-18T13:21:38;4.60;99.90
40996;DHT22;26723;57.478;12.066;2022-12-18T13:24:48;4.60;99.90
40996;DHT22;26723;57.478;12.066;2022-12-18T13:28:04;4.60;99.90
40996;DHT22;26723;57.478;12.066;2022-12-18T13:31:13;4.60;99.90
40996;DHT22;26723;57.478;12.066;2022-12-18T13:34:24;4.60;99.90
40996;DHT22;26723;57.478;12.066;2022-12-18T13:37:51;4.60;99.90
40996;DHT22;26723;57.478;12.066;2022-12-18T13:41:03;4.70;99.90
40996;DHT22;26723;57.478;12.066;2022-12-18T13:44:24;5.00;99.90
40996;DHT22;26723;57.478;12.066;2022-12-18T13:47:34;4.80;99.90
40996;DHT22;26723;57.478;12.066;2022-12-18T13:50:49;4.70;99.90
40996;DHT22;26723;57.478;12.066;2022-12-18T13:53:59;4.60;99.90
40996;DHT22;26723;57.478;12.066;2022-12-18T13:57:26;4.60;99.90
40996;DHT22;26723;57.478;12.066;2022-12-18T14:00:35;4.60;99.90
40996;DHT22;26723;57.478;12.066;2022-12-18T14:03:43;4.50;99.90
40996;DHT22;26723;57.478;12.066;2022-12-18T14:06:57;4.40;99.90
40996;DHT22;26723;57.478;12.066;2022-12-18T14:10:14;4.40;99.90
40996;DHT22;26723;57.478;12.066;2022-12-18T14:13:46;4.30;99.90
40996;DHT22;26723;57.478;12.066;2022-12-18T14:16:54;4.30;99.90
40996;DHT22;26723;57.478;12.066;2022-12-18T14:20:04;4.30;99.90
40996;DHT22;26723;57.478;12.066;2022-12-18T14:23:31;4.30;99.90
40996;DHT22;26723;57.478;12.066;2022-12-18T14:26:40;4.30;99.90
40996;DHT22;26723;57.478;12.066;2022-12-18T14:29:51;4.30;99.90
40996;DHT22;26723;57.478;12.066;2022-12-18T14:33:01;4.20;99.90
40996;DHT22;26723;57.478;12.066;2022-12-18T14:36:16;4.20;99.90
40996;DHT22;26723;57.478;12.066;2022-12-18T14:39:25;4.20;99.90
40996;DHT22;26723;57.478;12.066;2022-12-18T14:42:33;4.20;99.90
40996;DHT22;26723;57.478;12.066;2022-12-18T14:45:44;4.20;99.90
40996;DHT22;26723;57.478;12.066;2022-12-18T14:48:53;4.20;99.90
40996;DHT22;26723;57.478;12.066;2022-12-18T14:52:03;4.20;99.90
40996;DHT22;26723;57.478;12.066;2022-12-18T14:55:15;4.20;99.90
40996;DHT22;26723;57.478;12.066;2022-12-18T14:58:24;4.10;99.90
40996;DHT22;26723;57.478;12.066;2022-12-18T15:01:37;4.10;99.90
40996;DHT22;26723;57.478;12.066;2022-12-18T15:04:46;4.10;99.90
40996;DHT22;26723;57.478;12.066;2022-12-18T15:07:56;4.10;99.90
40996;DHT22;26723;57.478;12.066;2022-12-18T15:11:24;4.10;99.90
40996;DHT22;26723;57.478;12.066;2022-12-18T15:14:39;4.00;99.90
40996;DHT22;26723;57.478;12.066;2022-12-18T15:17:56;4.00;99.90
40996;DHT22;26723;57.478;12.066;2022-12-18T15:21:09;4.00;99.90
40996;DHT22;26723;57.478;12.066;2022-12-18T15:24:20;4.00;99.90
40996;DHT22;26723;57.478;12.066;2022-12-18T15:27:32;3.90;99.90
40996;DHT22;26723;57.478;12.066;2022-12-18T15:30:58;3.90;99.90
40996;DHT22;26723;57.478;12.066;2022-12-18T15:34:14;4.00;99.90
40996;DHT22;26723;57.478;12.066;2022-12-18T15:37:27;3.90;99.90
40996;DHT22;26723;57.478;12.066;2022-12-18T15:40:35;4.00;99.90
40996;DHT22;26723;57.478;12.066;2022-12-18T15:43:44;3.90;99.90
40996;DHT22;26723;57.478;12.066;2022-12-18T15:46:53;4.00;99.90
40996;DHT22;26723;57.478;12.066;2022-12-18T15:50:03;4.00;99.90
40996;DHT22;26723;57.478;12.066;2022-12-18T15:53:11;4.10;99.90
40996;DHT22;26723;57.478;12.066;2022-12-18T15:56:20;4.10;99.90
40996;DHT22;26723;57.478;12.066;2022-12-18T15:59:46;4.10;99.90
40996;DHT22;26723;57.478;12.066;2022-12-18T16:02:54;4.10;99.90
40996;DHT22;26723;57.478;12.066;2022-12-18T16:06:04;4.10;99.90
40996;DHT22;26723;57.478;12.066;2022-12-18T16:09:13;4.10;99.90
40996;DHT22;26723;57.478;12.066;2022-12-18T16:12:22;4.10;99.90
40996;DHT22;26723;57.478;12.066;2022-12-18T16:15:32;4.10;99.90
40996;DHT22;26723;57.478;12.066;2022-12-18T16:18:40;4.20;99.90
40996;DHT22;26723;57.478;12.066;2022-12-18T16:21:52;4.20;99.90
40996;DHT22;26723;57.478;12.066;2022-12-18T16:25:00;4.10;99.90
40996;DHT22;26723;57.478;12.066;2022-12-18T16:28:08;4.10;99.90
40996;DHT22;26723;57.478;12.066;2022-12-18T16:31:17;4.10;99.90
40996;DHT22;26723;57.478;12.066;2022-12-18T16:34:26;4.10;99.90
40996;DHT22;26723;57.478;12.066;2022-12-18T16:37:37;4.20;99.90
40996;DHT22;26723;57.478;12.066;2022-12-18T16:40:45;4.20;99.90
40996;DHT22;26723;57.478;12.066;2022-12-18T16:44:08;4.10;99.90
40996;DHT22;26723;57.478;12.066;2022-12-18T16:47:17;4.20;99.90
40996;DHT22;26723;57.478;12.066;2022-12-18T16:50:26;4.20;99.90
40996;DHT22;26723;57.478;12.066;2022-12-18T16:53:35;4.20;99.90
40996;DHT22;26723;57.478;12.066;2022-12-18T16:56:45;4.10;99.90
40996;DHT22;26723;57.478;12.066;2022-12-18T16:59:55;4.10;99.90
40996;DHT22;26723;57.478;12.066;2022-12-18T17:03:10;4.10;99.90
40996;DHT22;26723;57.478;12.066;2022-12-18T17:06:19;4.00;99.90
40996;DHT22;26723;57.478;12.066;2022-12-18T17:09:29;4.00;99.90
40996;DHT22;26723;57.478;12.066;2022-12-18T17:12:38;4.00;99.90
40996;DHT22;26723;57.478;12.066;2022-12-18T17:15:46;4.00;99.90
40996;DHT22;26723;57.478;12.066;2022-12-18T17:18:55;4.00;99.90
40996;DHT22;26723;57.478;12.066;2022-12-18T17:22:03;4.00;99.90
40996;DHT22;26723;57.478;12.066;2022-12-18T17:25:13;4.00;99.90
40996;DHT22;26723;57.478;12.066;2022-12-18T17:28:21;4.00;99.90
40996;DHT22;26723;57.478;12.066;2022-12-18T17:31:30;4.00;99.90
40996;DHT22;26723;57.478;12.066;2022-12-18T17:34:38;4.00;99.90
40996;DHT22;26723;57.478;12.066;2022-12-18T17:37:47;4.00;99.90
40996;DHT22;26723;57.478;12.066;2022-12-18T17:41:00;4.00;99.90
40996;DHT22;26723;57.478;12.066;2022-12-18T17:44:09;3.90;99.90
40996;DHT22;26723;57.478;12.066;2022-12-18T17:47:19;4.00;99.90
40996;DHT22;26723;57.478;12.066;2022-12-18T17:50:28;4.00;99.90
40996;DHT22;26723;57.478;12.066;2022-12-18T17:53:37;3.90;99.90
40996;DHT22;26723;57.478;12.066;2022-12-18T17:56:48;3.90;99.90
40996;DHT22;26723;57.478;12.066;2022-12-18T17:59:56;3.90;99.90
40996;DHT22;26723;57.478;12.066;2022-12-18T18:03:05;3.80;99.90
40996;DHT22;26723;57.478;12.066;2022-12-18T18:06:14;3.70;99.90
40996;DHT22;26723;57.478;12.066;2022-12-18T18:09:22;3.60;99.90
40996;DHT22;26723;57.478;12.066;2022-12-18T18:12:32;3.60;99.90
40996;DHT22;26723;57.478;12.066;2022-12-18T18:16:12;3.50;99.90
40996;DHT22;26723;57.478;12.066;2022-12-18T18:19:23;3.50;99.90
40996;DHT22;26723;57.478;12.066;2022-12-18T18:22:32;3.50;99.90
40996;DHT22;26723;57.478;12.066;2022-12-18T18:25:40;3.50;99.90
40996;DHT22;26723;57.478;12.066;2022-12-18T18:28:52;3.50;99.90
40996;DHT22;26723;57.478;12.066;2022-12-18T18:32:03;3.40;99.90
40996;DHT22;26723;57.478;12.066;2022-12-18T18:35:12;3.40;99.90
40996;DHT22;26723;57.478;12.066;2022-12-18T18:38:40;3.50;99.90
40996;DHT22;26723;57.478;12.066;2022-12-18T18:41:54;3.40;99.90
40996;DHT22;26723;57.478;12.066;2022-12-18T18:45:05;3.40;99.90
40996;DHT22;26723;57.478;12.066;2022-12-18T18:48:13;3.40;99.90
40996;DHT22;26723;57.478;12.066;2022-12-18T18:51:22;3.30;99.90
40996;DHT22;26723;57.478;12.066;2022-12-18T18:54:33;3.30;99.90
40996;DHT22;26723;57.478;12.066;2022-12-18T18:57:42;3.30;99.90
40996;DHT22;26723;57.478;12.066;2022-12-18T19:00:56;3.20;99.90
40996;DHT22;26723;57.478;12.066;2022-12-18T19:04:05;3.10;99.90
40996;DHT22;26723;57.478;12.066;2022-12-18T19:07:14;3.00;99.90
40996;DHT22;26723;57.478;12.066;2022-12-18T19:10:39;3.00;99.90
40996;DHT22;26723;57.478;12.066;2022-12-18T19:13:48;3.00;99.90
40996;DHT22;26723;57.478;12.066;2022-12-18T19:16:58;2.90;99.90
40996;DHT22;26723;57.478;12.066;2022-12-18T19:20:07;2.90;99.90
40996;DHT22;26723;57.478;12.066;2022-12-18T19:23:18;2.90;99.90
40996;DHT22;26723;57.478;12.066;2022-12-18T19:26:26;2.90;99.90
40996;DHT22;26723;57.478;12.066;2022-12-18T19:29:35;2.90;99.90
40996;DHT22;26723;57.478;12.066;2022-12-18T19:32:45;2.90;99.90
40996;DHT22;26723;57.478;12.066;2022-12-18T19:35:53;2.80;99.90
40996;DHT22;26723;57.478;12.066;2022-12-18T19:39:07;2.80;99.90
40996;DHT22;26723;57.478;12.066;2022-12-18T19:42:16;2.70;99.90
40996;DHT22;26723;57.478;12.066;2022-12-18T19:45:34;2.70;99.90
40996;DHT22;26723;57.478;12.066;2022-12-18T19:48:44;2.60;99.90
40996;DHT22;26723;57.478;12.066;2022-12-18T19:51:53;2.50;99.90
40996;DHT22;26723;57.478;12.066;2022-12-18T19:55:02;2.50;99.90
40996;DHT22;26723;57.478;12.066;2022-12-18T19:58:10;2.40;99.90
40996;DHT22;26723;57.478;12.066;2022-12-18T20:01:20;2.40;99.90
40996;DHT22;26723;57.478;12.066;2022-12-18T20:04:31;2.40;99.90
40996;DHT22;26723;57.478;12.066;2022-12-18T20:07:39;2.40;99.90
40996;DHT22;26723;57.478;12.066;2022-12-18T20:10:49;2.40;99.90